sensor_id;sensor_type;location;lat;lon;timestamp;pressure;altitude;pressure_sealevel;temperature
71649;BMP180;59492;45.638;11.714;2022-08-19T00:00:30;100358.80;;;27.28
71649;BMP180;59492;45.638;11.714;2022-08-19T00:02:57;100372.00;;;27.20
71649;BMP180;59492;45.638;11.714;2022-08-19T00:05:23;100387.60;;;27.20
71649;BMP180;59492;45.638;11.714;2022-08-19T00:07:49;100397.60;;;27.20
71649;BMP180;59492;45.638;11.714;2022-08-19T00:10:16;100402.60;;;27.20
71649;BMP180;59492;45.638;11.714;2022-08-19T00:12:43;100416.40;;;27.20
71649;BMP180;59492;45.638;11.714;2022-08-19T00:15:12;100409.80;;;27.20
71649;BMP180;59492;45.638;11.714;2022-08-19T00:17:40;100409.40;;;27.18
71649;BMP180;59492;45.638;11.714;2022-08-19T00:20:10;100416.20;;;27.18
71649;BMP180;59492;45.638;11.714;2022-08-19T00:22:37;100433.20;;;27.14
71649;BMP180;59492;45.638;11.714;2022-08-19T00:25:05;100446.60;;;27.10
71649;BMP180;59492;45.638;11.714;2022-08-19T00:27:34;100468.40;;;27.10
71649;BMP180;59492;45.638;11.714;2022-08-19T00:30:00;100499.20;;;27.10
71649;BMP180;59492;45.638;11.714;2022-08-19T00:32:29;100508.00;;;27.10
71649;BMP180;59492;45.638;11.714;2022-08-19T00:34:54;100510.80;;;27.10
71649;BMP180;59492;45.638;11.714;2022-08-19T00:37:24;100512.20;;;27.10
71649;BMP180;59492;45.638;11.714;2022-08-19T00:39:52;100513.20;;;27.10
71649;BMP180;59492;45.638;11.714;2022-08-19T00:42:20;100505.00;;;27.08
71649;BMP180;59492;45.638;11.714;2022-08-19T00:44:46;100493.20;;;27.04
71649;BMP180;59492;45.638;11.714;2022-08-19T00:47:12;100484.60;;;27.02
71649;BMP180;59492;45.638;11.714;2022-08-19T00:49:47;100484.20;;;27.00
71649;BMP180;59492;45.638;11.714;2022-08-19T00:52:38;100483.20;;;27.00
71649;BMP180;59492;45.638;11.714;2022-08-19T00:55:07;100484.00;;;26.98
71649;BMP180;59492;45.638;11.714;2022-08-19T00:57:40;100484.60;;;27.00
71649;BMP180;59492;45.638;11.714;2022-08-19T01:00:17;100489.60;;;27.00
71649;BMP180;59492;45.638;11.714;2022-08-19T01:02:46;100493.80;;;26.98
71649;BMP180;59492;45.638;11.714;2022-08-19T01:05:17;100484.60;;;27.00
71649;BMP180;59492;45.638;11.714;2022-08-19T01:07:47;100469.20;;;26.94
71649;BMP180;59492;45.638;11.714;2022-08-19T01:10:20;100443.20;;;26.94
71649;BMP180;59492;45.638;11.714;2022-08-19T01:12:48;100411.80;;;26.90
71649;BMP180;59492;45.638;11.714;2022-08-19T01:15:16;100401.00;;;26.90
71649;BMP180;59492;45.638;11.714;2022-08-19T01:17:44;100394.60;;;26.90
71649;BMP180;59492;45.638;11.714;2022-08-19T01:20:16;100381.20;;;26.90
71649;BMP180;59492;45.638;11.714;2022-08-19T01:22:48;100354.00;;;26.90
71649;BMP180;59492;45.638;11.714;2022-08-19T01:25:18;100337.00;;;26.88
71649;BMP180;59492;45.638;11.714;2022-08-19T01:27:48;100338.40;;;26.88
71649;BMP180;59492;45.638;11.714;2022-08-19T01:30:18;100349.20;;;26.88
71649;BMP180;59492;45.638;11.714;2022-08-19T01:32:45;100342.60;;;26.88
71649;BMP180;59492;45.638;11.714;2022-08-19T01:35:12;100326.00;;;26.88
71649;BMP180;59492;45.638;11.714;2022-08-19T01:38:01;100303.40;;;26.84
71649;BMP180;59492;45.638;11.714;2022-08-19T01:40:32;100297.80;;;26.80
71649;BMP180;59492;45.638;11.714;2022-08-19T01:42:58;100294.80;;;26.80
71649;BMP180;59492;45.638;11.714;2022-08-19T01:45:26;100311.60;;;26.80
71649;BMP180;59492;45.638;11.714;2022-08-19T01:47:54;100349.20;;;26.80
71649;BMP180;59492;45.638;11.714;2022-08-19T01:50:21;100377.60;;;26.80
71649;BMP180;59492;45.638;11.714;2022-08-19T01:52:47;100399.20;;;26.80
71649;BMP180;59492;45.638;11.714;2022-08-19T01:55:16;100402.60;;;26.80
71649;BMP180;59492;45.638;11.714;2022-08-19T01:57:46;100402.20;;;26.80
71649;BMP180;59492;45.638;11.714;2022-08-19T02:00:15;100410.40;;;26.80
71649;BMP180;59492;45.638;11.714;2022-08-19T02:02:43;100402.40;;;26.78
71649;BMP180;59492;45.638;11.714;2022-08-19T02:05:15;100391.00;;;26.78
71649;BMP180;59492;45.638;11.714;2022-08-19T02:07:43;100372.80;;;26.72
71649;BMP180;59492;45.638;11.714;2022-08-19T02:10:15;100382.00;;;26.76
71649;BMP180;59492;45.638;11.714;2022-08-19T02:12:41;100425.40;;;26.70
71649;BMP180;59492;45.638;11.714;2022-08-19T02:15:10;100430.60;;;26.74
71649;BMP180;59492;45.638;11.714;2022-08-19T02:17:36;100401.40;;;26.70
71649;BMP180;59492;45.638;11.714;2022-08-19T02:20:06;100370.20;;;26.70
71649;BMP180;59492;45.638;11.714;2022-08-19T02:22:32;100379.40;;;26.70
71649;BMP180;59492;45.638;11.714;2022-08-19T02:24:58;100372.40;;;26.70
71649;BMP180;59492;45.638;11.714;2022-08-19T02:27:24;100276.60;;;26.70
71649;BMP180;59492;45.638;11.714;2022-08-19T02:29:53;100137.80;;;26.70
71649;BMP180;59492;45.638;11.714;2022-08-19T02:32:19;100142.20;;;26.70
71649;BMP180;59492;45.638;11.714;2022-08-19T02:34:46;100184.40;;;26.70
71649;BMP180;59492;45.638;11.714;2022-08-19T02:37:13;100233.20;;;26.70
71649;BMP180;59492;45.638;11.714;2022-08-19T02:39:58;100291.60;;;26.62
71649;BMP180;59492;45.638;11.714;2022-08-19T02:42:24;100324.80;;;26.68
71649;BMP180;59492;45.638;11.714;2022-08-19T02:44:51;100292.20;;;26.66
71649;BMP180;59492;45.638;11.714;2022-08-19T02:47:20;100240.80;;;26.64
71649;BMP180;59492;45.638;11.714;2022-08-19T02:49:54;100208.00;;;26.60
71649;BMP180;59492;45.638;11.714;2022-08-19T02:52:20;100231.20;;;26.60
71649;BMP180;59492;45.638;11.714;2022-08-19T02:54:48;100284.40;;;26.62
71649;BMP180;59492;45.638;11.714;2022-08-19T02:57:17;100300.00;;;26.60
71649;BMP180;59492;45.638;11.714;2022-08-19T02:59:43;100303.20;;;26.60
71649;BMP180;59492;45.638;11.714;2022-08-19T03:02:08;100315.80;;;26.60
71649;BMP180;59492;45.638;11.714;2022-08-19T03:04:44;100309.80;;;26.60
71649;BMP180;59492;45.638;11.714;2022-08-19T03:07:13;100308.00;;;26.60
71649;BMP180;59492;45.638;11.714;2022-08-19T03:09:40;100305.60;;;26.60
71649;BMP180;59492;45.638;11.714;2022-08-19T03:12:07;100303.60;;;26.60
71649;BMP180;59492;45.638;11.714;2022-08-19T03:14:33;100290.60;;;26.60
71649;BMP180;59492;45.638;11.714;2022-08-19T03:17:00;100273.40;;;26.60
71649;BMP180;59492;45.638;11.714;2022-08-19T03:19:26;100275.60;;;26.58
71649;BMP180;59492;45.638;11.714;2022-08-19T03:21:53;100288.40;;;26.56
71649;BMP180;59492;45.638;11.714;2022-08-19T03:24:21;100287.80;;;26.52
71649;BMP180;59492;45.638;11.714;2022-08-19T03:26:50;100299.00;;;26.52
71649;BMP180;59492;45.638;11.714;2022-08-19T03:29:38;100311.80;;;26.50
71649;BMP180;59492;45.638;11.714;2022-08-19T03:32:05;100329.60;;;26.50
71649;BMP180;59492;45.638;11.714;2022-08-19T03:34:33;100332.00;;;26.50
71649;BMP180;59492;45.638;11.714;2022-08-19T03:37:05;100327.40;;;26.50
71649;BMP180;59492;45.638;11.714;2022-08-19T03:39:30;100318.40;;;26.50
71649;BMP180;59492;45.638;11.714;2022-08-19T03:41:56;100314.00;;;26.50
71649;BMP180;59492;45.638;11.714;2022-08-19T03:44:23;100312.60;;;26.50
71649;BMP180;59492;45.638;11.714;2022-08-19T03:46:52;100322.40;;;26.50
71649;BMP180;59492;45.638;11.714;2022-08-19T03:49:19;100335.40;;;26.50
71649;BMP180;59492;45.638;11.714;2022-08-19T03:51:47;100345.20;;;26.50
71649;BMP180;59492;45.638;11.714;2022-08-19T03:54:27;100346.80;;;26.50
71649;BMP180;59492;45.638;11.714;2022-08-19T03:56:54;100350.60;;;26.48
71649;BMP180;59492;45.638;11.714;2022-08-19T03:59:24;100350.80;;;26.50
71649;BMP180;59492;45.638;11.714;2022-08-19T04:01:56;100355.80;;;26.50
71649;BMP180;59492;45.638;11.714;2022-08-19T04:04:22;100349.80;;;26.50
71649;BMP180;59492;45.638;11.714;2022-08-19T04:06:49;100352.40;;;26.50
71649;BMP180;59492;45.638;11.714;2022-08-19T04:09:16;100350.60;;;26.50
71649;BMP180;59492;45.638;11.714;2022-08-19T04:11:49;100352.80;;;26.50
71649;BMP180;59492;45.638;11.714;2022-08-19T04:14:18;100346.20;;;26.46
71649;BMP180;59492;45.638;11.714;2022-08-19T04:16:45;100355.00;;;26.48
71649;BMP180;59492;45.638;11.714;2022-08-19T04:19:12;100358.00;;;26.46
71649;BMP180;59492;45.638;11.714;2022-08-19T04:21:39;100356.40;;;26.46
71649;BMP180;59492;45.638;11.714;2022-08-19T04:24:05;100357.60;;;26.48
71649;BMP180;59492;45.638;11.714;2022-08-19T04:26:34;100365.60;;;26.50
71649;BMP180;59492;45.638;11.714;2022-08-19T04:29:02;100379.60;;;26.48
71649;BMP180;59492;45.638;11.714;2022-08-19T04:31:30;100396.20;;;26.46
71649;BMP180;59492;45.638;11.714;2022-08-19T04:33:57;100406.60;;;26.46
71649;BMP180;59492;45.638;11.714;2022-08-19T04:36:29;100411.60;;;26.44
71649;BMP180;59492;45.638;11.714;2022-08-19T04:38:58;100422.40;;;26.42
71649;BMP180;59492;45.638;11.714;2022-08-19T04:41:26;100427.80;;;26.44
71649;BMP180;59492;45.638;11.714;2022-08-19T04:44:11;100438.80;;;26.40
71649;BMP180;59492;45.638;11.714;2022-08-19T04:46:37;100443.20;;;26.40
71649;BMP180;59492;45.638;11.714;2022-08-19T04:49:04;100440.40;;;26.42
71649;BMP180;59492;45.638;11.714;2022-08-19T04:51:32;100445.20;;;26.42
71649;BMP180;59492;45.638;11.714;2022-08-19T04:53:59;100446.80;;;26.42
71649;BMP180;59492;45.638;11.714;2022-08-19T04:56:26;100440.60;;;26.42
71649;BMP180;59492;45.638;11.714;2022-08-19T04:58:56;100439.60;;;26.44
71649;BMP180;59492;45.638;11.714;2022-08-19T05:01:25;100451.00;;;26.42
71649;BMP180;59492;45.638;11.714;2022-08-19T05:03:52;100456.40;;;26.42
71649;BMP180;59492;45.638;11.714;2022-08-19T05:06:20;100453.40;;;26.40
71649;BMP180;59492;45.638;11.714;2022-08-19T05:08:46;100446.80;;;26.40
71649;BMP180;59492;45.638;11.714;2022-08-19T05:11:17;100434.80;;;26.40
71649;BMP180;59492;45.638;11.714;2022-08-19T05:13:46;100423.60;;;26.40
71649;BMP180;59492;45.638;11.714;2022-08-19T05:16:16;100425.00;;;26.40
71649;BMP180;59492;45.638;11.714;2022-08-19T05:18:42;100423.80;;;26.40
71649;BMP180;59492;45.638;11.714;2022-08-19T05:21:40;100426.80;;;26.40
71649;BMP180;59492;45.638;11.714;2022-08-19T05:24:28;100434.20;;;26.40
71649;BMP180;59492;45.638;11.714;2022-08-19T05:27:04;100428.60;;;26.40
71649;BMP180;59492;45.638;11.714;2022-08-19T05:29:32;100420.40;;;26.40
71649;BMP180;59492;45.638;11.714;2022-08-19T05:32:02;100416.60;;;26.40
71649;BMP180;59492;45.638;11.714;2022-08-19T05:34:31;100409.80;;;26.40
71649;BMP180;59492;45.638;11.714;2022-08-19T05:37:01;100401.20;;;26.40
71649;BMP180;59492;45.638;11.714;2022-08-19T05:39:29;100397.60;;;26.42
71649;BMP180;59492;45.638;11.714;2022-08-19T05:42:01;100397.20;;;26.44
71649;BMP180;59492;45.638;11.714;2022-08-19T05:44:31;100399.40;;;26.44
71649;BMP180;59492;45.638;11.714;2022-08-19T05:47:01;100394.80;;;26.50
71649;BMP180;59492;45.638;11.714;2022-08-19T05:49:28;100385.20;;;26.54
71649;BMP180;59492;45.638;11.714;2022-08-19T05:51:54;100382.20;;;26.60
71649;BMP180;59492;45.638;11.714;2022-08-19T05:54:21;100377.60;;;26.60
71649;BMP180;59492;45.638;11.714;2022-08-19T05:56:49;100375.20;;;26.70
71649;BMP180;59492;45.638;11.714;2022-08-19T05:59:17;100361.40;;;26.70
71649;BMP180;59492;45.638;11.714;2022-08-19T06:01:45;100347.20;;;26.78
71649;BMP180;59492;45.638;11.714;2022-08-19T06:04:12;100335.00;;;26.76
71649;BMP180;59492;45.638;11.714;2022-08-19T06:06:42;100325.20;;;26.80
71649;BMP180;59492;45.638;11.714;2022-08-19T06:09:08;100326.00;;;26.80
71649;BMP180;59492;45.638;11.714;2022-08-19T06:11:45;100319.80;;;26.90
71649;BMP180;59492;45.638;11.714;2022-08-19T06:14:18;100314.40;;;26.90
71649;BMP180;59492;45.638;11.714;2022-08-19T06:16:52;100313.20;;;26.90
71649;BMP180;59492;45.638;11.714;2022-08-19T06:19:33;100322.00;;;26.90
71649;BMP180;59492;45.638;11.714;2022-08-19T06:22:01;100342.60;;;26.98
71649;BMP180;59492;45.638;11.714;2022-08-19T06:24:36;100348.60;;;27.00
71649;BMP180;59492;45.638;11.714;2022-08-19T06:27:05;100356.60;;;27.00
71649;BMP180;59492;45.638;11.714;2022-08-19T06:29:31;100346.80;;;27.00
71649;BMP180;59492;45.638;11.714;2022-08-19T06:31:59;100329.40;;;27.00
71649;BMP180;59492;45.638;11.714;2022-08-19T06:34:27;100310.00;;;27.00
71649;BMP180;59492;45.638;11.714;2022-08-19T06:36:59;100311.60;;;27.00
71649;BMP180;59492;45.638;11.714;2022-08-19T06:39:30;100319.20;;;27.00
71649;BMP180;59492;45.638;11.714;2022-08-19T06:42:01;100321.40;;;27.00
71649;BMP180;59492;45.638;11.714;2022-08-19T06:44:32;100325.40;;;27.02
71649;BMP180;59492;45.638;11.714;2022-08-19T06:47:07;100314.00;;;27.02
71649;BMP180;59492;45.638;11.714;2022-08-19T06:49:33;100311.80;;;27.04
71649;BMP180;59492;45.638;11.714;2022-08-19T06:52:09;100315.40;;;27.06
71649;BMP180;59492;45.638;11.714;2022-08-19T06:54:37;100319.80;;;27.04
71649;BMP180;59492;45.638;11.714;2022-08-19T06:57:05;100330.80;;;27.06
71649;BMP180;59492;45.638;11.714;2022-08-19T06:59:32;100341.00;;;27.04
71649;BMP180;59492;45.638;11.714;2022-08-19T07:02:01;100331.20;;;27.06
71649;BMP180;59492;45.638;11.714;2022-08-19T07:04:32;100330.60;;;27.00
71649;BMP180;59492;45.638;11.714;2022-08-19T07:07:01;100335.80;;;27.00
71649;BMP180;59492;45.638;11.714;2022-08-19T07:09:28;100348.40;;;27.00
71649;BMP180;59492;45.638;11.714;2022-08-19T07:11:55;100354.80;;;27.00
71649;BMP180;59492;45.638;11.714;2022-08-19T07:14:26;100365.40;;;27.00
71649;BMP180;59492;45.638;11.714;2022-08-19T07:16:55;100363.60;;;27.00
71649;BMP180;59492;45.638;11.714;2022-08-19T07:19:25;100353.60;;;27.00
71649;BMP180;59492;45.638;11.714;2022-08-19T07:21:52;100350.60;;;27.00
71649;BMP180;59492;45.638;11.714;2022-08-19T07:24:22;100351.00;;;27.00
71649;BMP180;59492;45.638;11.714;2022-08-19T07:26:50;100357.40;;;27.00
71649;BMP180;59492;45.638;11.714;2022-08-19T07:29:17;100359.00;;;27.00
71649;BMP180;59492;45.638;11.714;2022-08-19T07:31:43;100355.40;;;26.98
71649;BMP180;59492;45.638;11.714;2022-08-19T07:34:10;100356.00;;;26.96
71649;BMP180;59492;45.638;11.714;2022-08-19T07:36:42;100354.20;;;26.94
71649;BMP180;59492;45.638;11.714;2022-08-19T07:39:15;100349.20;;;26.92
71649;BMP180;59492;45.638;11.714;2022-08-19T07:41:42;100341.20;;;26.90
71649;BMP180;59492;45.638;11.714;2022-08-19T07:44:11;100329.60;;;26.90
71649;BMP180;59492;45.638;11.714;2022-08-19T07:46:42;100317.00;;;26.90
71649;BMP180;59492;45.638;11.714;2022-08-19T07:49:13;100317.80;;;26.90
71649;BMP180;59492;45.638;11.714;2022-08-19T07:51:52;100326.60;;;26.90
71649;BMP180;59492;45.638;11.714;2022-08-19T07:54:20;100339.20;;;26.90
71649;BMP180;59492;45.638;11.714;2022-08-19T07:56:46;100349.60;;;26.90
71649;BMP180;59492;45.638;11.714;2022-08-19T07:59:18;100355.20;;;26.90
71649;BMP180;59492;45.638;11.714;2022-08-19T08:01:52;100361.00;;;26.90
71649;BMP180;59492;45.638;11.714;2022-08-19T08:04:19;100363.60;;;26.84
71649;BMP180;59492;45.638;11.714;2022-08-19T08:07:07;100368.60;;;26.82
71649;BMP180;59492;45.638;11.714;2022-08-19T08:09:54;100374.80;;;26.80
71649;BMP180;59492;45.638;11.714;2022-08-19T08:12:27;100379.60;;;26.80
71649;BMP180;59492;45.638;11.714;2022-08-19T08:14:58;100379.80;;;26.80
71649;BMP180;59492;45.638;11.714;2022-08-19T08:17:30;100375.60;;;26.80
71649;BMP180;59492;45.638;11.714;2022-08-19T08:19:57;100369.00;;;26.80
71649;BMP180;59492;45.638;11.714;2022-08-19T08:22:24;100374.40;;;26.80
71649;BMP180;59492;45.638;11.714;2022-08-19T08:25:21;100383.80;;;26.80
71649;BMP180;59492;45.638;11.714;2022-08-19T08:27:52;100392.40;;;26.80
71649;BMP180;59492;45.638;11.714;2022-08-19T08:30:24;100395.00;;;26.80
71649;BMP180;59492;45.638;11.714;2022-08-19T08:32:55;100389.80;;;26.80
71649;BMP180;59492;45.638;11.714;2022-08-19T08:35:25;100380.60;;;26.80
71649;BMP180;59492;45.638;11.714;2022-08-19T08:37:55;100375.60;;;26.80
71649;BMP180;59492;45.638;11.714;2022-08-19T08:43:13;100375.80;;;26.76
71649;BMP180;59492;45.638;11.714;2022-08-19T08:45:59;100377.20;;;26.76
71649;BMP180;59492;45.638;11.714;2022-08-19T08:48:46;100384.60;;;26.74
71649;BMP180;59492;45.638;11.714;2022-08-19T08:51:24;100395.80;;;26.70
71649;BMP180;59492;45.638;11.714;2022-08-19T08:53:53;100423.40;;;26.72
71649;BMP180;59492;45.638;11.714;2022-08-19T08:56:20;100470.60;;;26.74
71649;BMP180;59492;45.638;11.714;2022-08-19T09:01:23;100480.20;;;26.72
71649;BMP180;59492;45.638;11.714;2022-08-19T09:03:49;100459.80;;;26.74
71649;BMP180;59492;45.638;11.714;2022-08-19T09:09:40;100447.80;;;26.70
71649;BMP180;59492;45.638;11.714;2022-08-19T09:15:29;100437.80;;;26.70
71649;BMP180;59492;45.638;11.714;2022-08-19T09:18:01;100421.60;;;26.70
71649;BMP180;59492;45.638;11.714;2022-08-19T09:20:28;100403.40;;;26.70
71649;BMP180;59492;45.638;11.714;2022-08-19T09:22:56;100398.60;;;26.70
71649;BMP180;59492;45.638;11.714;2022-08-19T09:25:26;100416.20;;;26.70
71649;BMP180;59492;45.638;11.714;2022-08-19T09:27:58;100424.80;;;26.74
71649;BMP180;59492;45.638;11.714;2022-08-19T09:30:33;100426.20;;;26.70
71649;BMP180;59492;45.638;11.714;2022-08-19T09:33:01;100427.80;;;26.76
71649;BMP180;59492;45.638;11.714;2022-08-19T09:35:29;100422.60;;;26.78
71649;BMP180;59492;45.638;11.714;2022-08-19T09:37:58;100419.80;;;26.78
71649;BMP180;59492;45.638;11.714;2022-08-19T09:40:29;100413.00;;;26.80
71649;BMP180;59492;45.638;11.714;2022-08-19T09:42:55;100409.40;;;26.80
71649;BMP180;59492;45.638;11.714;2022-08-19T09:45:22;100401.60;;;26.80
71649;BMP180;59492;45.638;11.714;2022-08-19T09:47:50;100388.60;;;26.80
71649;BMP180;59492;45.638;11.714;2022-08-19T09:50:17;100384.60;;;26.80
71649;BMP180;59492;45.638;11.714;2022-08-19T09:52:44;100377.00;;;26.82
71649;BMP180;59492;45.638;11.714;2022-08-19T09:55:13;100377.40;;;26.84
71649;BMP180;59492;45.638;11.714;2022-08-19T09:57:48;100367.80;;;26.88
71649;BMP180;59492;45.638;11.714;2022-08-19T10:00:14;100373.60;;;26.88
71649;BMP180;59492;45.638;11.714;2022-08-19T10:02:40;100374.20;;;26.90
71649;BMP180;59492;45.638;11.714;2022-08-19T10:05:06;100368.60;;;26.90
71649;BMP180;59492;45.638;11.714;2022-08-19T10:07:51;100378.40;;;26.90
71649;BMP180;59492;45.638;11.714;2022-08-19T10:10:17;100386.20;;;26.90
71649;BMP180;59492;45.638;11.714;2022-08-19T10:12:42;100389.00;;;26.96
71649;BMP180;59492;45.638;11.714;2022-08-19T10:15:13;100384.40;;;26.98
71649;BMP180;59492;45.638;11.714;2022-08-19T10:17:39;100378.00;;;27.00
71649;BMP180;59492;45.638;11.714;2022-08-19T10:20:05;100376.20;;;27.00
71649;BMP180;59492;45.638;11.714;2022-08-19T10:22:32;100366.40;;;27.00
71649;BMP180;59492;45.638;11.714;2022-08-19T10:25:01;100365.20;;;27.00
71649;BMP180;59492;45.638;11.714;2022-08-19T10:27:26;100362.20;;;27.02
71649;BMP180;59492;45.638;11.714;2022-08-19T10:29:52;100364.00;;;27.06
71649;BMP180;59492;45.638;11.714;2022-08-19T10:32:18;100362.20;;;27.10
71649;BMP180;59492;45.638;11.714;2022-08-19T10:34:43;100358.80;;;27.10
71649;BMP180;59492;45.638;11.714;2022-08-19T10:37:09;100353.80;;;27.10
71649;BMP180;59492;45.638;11.714;2022-08-19T10:39:36;100347.40;;;27.10
71649;BMP180;59492;45.638;11.714;2022-08-19T10:42:06;100349.20;;;27.12
71649;BMP180;59492;45.638;11.714;2022-08-19T10:44:35;100350.20;;;27.14
71649;BMP180;59492;45.638;11.714;2022-08-19T10:47:02;100343.60;;;27.18
71649;BMP180;59492;45.638;11.714;2022-08-19T10:49:29;100343.20;;;27.18
71649;BMP180;59492;45.638;11.714;2022-08-19T10:51:55;100341.20;;;27.20
71649;BMP180;59492;45.638;11.714;2022-08-19T10:54:40;100338.40;;;27.16
71649;BMP180;59492;45.638;11.714;2022-08-19T10:57:25;100334.00;;;27.18
71649;BMP180;59492;45.638;11.714;2022-08-19T10:59:56;100330.40;;;27.20
71649;BMP180;59492;45.638;11.714;2022-08-19T11:02:22;100324.40;;;27.20
71649;BMP180;59492;45.638;11.714;2022-08-19T11:04:48;100321.20;;;27.20
71649;BMP180;59492;45.638;11.714;2022-08-19T11:07:17;100317.80;;;27.20
71649;BMP180;59492;45.638;11.714;2022-08-19T11:09:43;100318.40;;;27.20
71649;BMP180;59492;45.638;11.714;2022-08-19T11:12:10;100315.80;;;27.24
71649;BMP180;59492;45.638;11.714;2022-08-19T11:14:38;100321.80;;;27.28
71649;BMP180;59492;45.638;11.714;2022-08-19T11:17:05;100326.00;;;27.30
71649;BMP180;59492;45.638;11.714;2022-08-19T11:19:32;100328.60;;;27.30
71649;BMP180;59492;45.638;11.714;2022-08-19T11:21:59;100333.80;;;27.30
71649;BMP180;59492;45.638;11.714;2022-08-19T11:24:26;100327.00;;;27.30
71649;BMP180;59492;45.638;11.714;2022-08-19T11:26:54;100330.40;;;27.30
71649;BMP180;59492;45.638;11.714;2022-08-19T11:29:24;100337.60;;;27.30
71649;BMP180;59492;45.638;11.714;2022-08-19T11:31:54;100342.80;;;27.30
71649;BMP180;59492;45.638;11.714;2022-08-19T11:34:22;100348.60;;;27.30
71649;BMP180;59492;45.638;11.714;2022-08-19T11:36:50;100353.40;;;27.30
71649;BMP180;59492;45.638;11.714;2022-08-19T11:39:18;100357.20;;;27.30
71649;BMP180;59492;45.638;11.714;2022-08-19T11:41:45;100354.80;;;27.30
71649;BMP180;59492;45.638;11.714;2022-08-19T11:44:11;100356.00;;;27.30
71649;BMP180;59492;45.638;11.714;2022-08-19T11:46:42;100361.60;;;27.30
71649;BMP180;59492;45.638;11.714;2022-08-19T11:49:14;100367.40;;;27.30
71649;BMP180;59492;45.638;11.714;2022-08-19T11:51:41;100362.00;;;27.30
71649;BMP180;59492;45.638;11.714;2022-08-19T11:54:09;100359.00;;;27.30
71649;BMP180;59492;45.638;11.714;2022-08-19T11:56:36;100358.00;;;27.30
71649;BMP180;59492;45.638;11.714;2022-08-19T11:59:02;100361.20;;;27.30
71649;BMP180;59492;45.638;11.714;2022-08-19T12:01:31;100366.00;;;27.30
71649;BMP180;59492;45.638;11.714;2022-08-19T12:03:57;100372.20;;;27.30
71649;BMP180;59492;45.638;11.714;2022-08-19T12:06:29;100375.60;;;27.30
71649;BMP180;59492;45.638;11.714;2022-08-19T12:08:56;100372.00;;;27.28
71649;BMP180;59492;45.638;11.714;2022-08-19T12:11:22;100378.00;;;27.28
71649;BMP180;59492;45.638;11.714;2022-08-19T12:13:49;100367.20;;;27.28
71649;BMP180;59492;45.638;11.714;2022-08-19T12:16:21;100368.20;;;27.30
71649;BMP180;59492;45.638;11.714;2022-08-19T12:18:47;100367.20;;;27.28
71649;BMP180;59492;45.638;11.714;2022-08-19T12:21:16;100368.20;;;27.10
71649;BMP180;59492;45.638;11.714;2022-08-19T12:23:43;100372.00;;;27.20
71649;BMP180;59492;45.638;11.714;2022-08-19T12:26:10;100377.00;;;27.20
71649;BMP180;59492;45.638;11.714;2022-08-19T12:28:37;100382.60;;;27.22
71649;BMP180;59492;45.638;11.714;2022-08-19T12:31:07;100387.40;;;27.26
71649;BMP180;59492;45.638;11.714;2022-08-19T12:33:36;100392.40;;;27.24
71649;BMP180;59492;45.638;11.714;2022-08-19T12:36:06;100386.00;;;27.28
71649;BMP180;59492;45.638;11.714;2022-08-19T12:38:34;100383.40;;;27.30
71649;BMP180;59492;45.638;11.714;2022-08-19T12:41:03;100385.40;;;27.30
71649;BMP180;59492;45.638;11.714;2022-08-19T12:43:33;100378.20;;;27.30
71649;BMP180;59492;45.638;11.714;2022-08-19T12:46:01;100376.20;;;27.38
71649;BMP180;59492;45.638;11.714;2022-08-19T12:48:28;100376.00;;;27.40
71649;BMP180;59492;45.638;11.714;2022-08-19T12:50:54;100379.60;;;27.40
71649;BMP180;59492;45.638;11.714;2022-08-19T12:53:26;100375.80;;;27.50
71649;BMP180;59492;45.638;11.714;2022-08-19T12:56:04;100377.40;;;27.50
71649;BMP180;59492;45.638;11.714;2022-08-19T12:58:42;100377.00;;;27.60
71649;BMP180;59492;45.638;11.714;2022-08-19T13:01:10;100378.00;;;27.68
71649;BMP180;59492;45.638;11.714;2022-08-19T13:03:36;100386.40;;;27.70
71649;BMP180;59492;45.638;11.714;2022-08-19T13:06:02;100384.20;;;27.80
71649;BMP180;59492;45.638;11.714;2022-08-19T13:08:27;100385.80;;;27.80
71649;BMP180;59492;45.638;11.714;2022-08-19T13:10:53;100382.40;;;27.90
71649;BMP180;59492;45.638;11.714;2022-08-19T13:13:19;100379.60;;;27.96
71649;BMP180;59492;45.638;11.714;2022-08-19T13:15:44;100372.60;;;28.00
71649;BMP180;59492;45.638;11.714;2022-08-19T13:18:11;100373.40;;;28.10
71649;BMP180;59492;45.638;11.714;2022-08-19T13:20:38;100368.00;;;28.10
71649;BMP180;59492;45.638;11.714;2022-08-19T13:23:16;100374.00;;;28.20
71649;BMP180;59492;45.638;11.714;2022-08-19T13:25:42;100373.80;;;28.20
71649;BMP180;59492;45.638;11.714;2022-08-19T13:28:07;100372.60;;;28.30
71649;BMP180;59492;45.638;11.714;2022-08-19T13:30:33;100370.40;;;28.30
71649;BMP180;59492;45.638;11.714;2022-08-19T13:33:17;100374.60;;;28.36
71649;BMP180;59492;45.638;11.714;2022-08-19T13:35:58;100377.00;;;28.40
71649;BMP180;59492;45.638;11.714;2022-08-19T13:38:26;100386.40;;;28.46
71649;BMP180;59492;45.638;11.714;2022-08-19T13:40:53;100385.20;;;28.50
71649;BMP180;59492;45.638;11.714;2022-08-19T13:43:21;100382.00;;;28.56
71649;BMP180;59492;45.638;11.714;2022-08-19T13:45:48;100384.00;;;28.60
71649;BMP180;59492;45.638;11.714;2022-08-19T13:48:14;100379.80;;;28.60
71649;BMP180;59492;45.638;11.714;2022-08-19T13:50:46;100377.40;;;28.70
71649;BMP180;59492;45.638;11.714;2022-08-19T13:53:13;100379.80;;;28.70
71649;BMP180;59492;45.638;11.714;2022-08-19T13:55:43;100373.60;;;28.74
71649;BMP180;59492;45.638;11.714;2022-08-19T13:58:10;100376.00;;;28.80
71649;BMP180;59492;45.638;11.714;2022-08-19T14:00:39;100375.80;;;28.80
71649;BMP180;59492;45.638;11.714;2022-08-19T14:03:05;100379.40;;;28.80
71649;BMP180;59492;45.638;11.714;2022-08-19T14:05:31;100379.00;;;28.86
71649;BMP180;59492;45.638;11.714;2022-08-19T14:07:58;100375.60;;;28.90